« Back
NWS Peachtree City, Ga » Text Product » ATL Terminal Aerodrome Forecast


Printer-friendly Version
Current Version              Previous Versions:   1  2  3  4  5  6  7  8  9  

Terminal Aerodrome Forecast

664
FTUS42 KFFC 261336 AAA
TAFATL
TAF AMD
KATL 261336Z 2614/2718 12006KT P6SM SCT060
     FM261900 16007KT P6SM VCSH SCT045
      TEMPO 2623/2703 6SM -TSRA OVC035CB
     FM270400 21002KT 6SM BR VCSH BKN050 BKN100
     FM270900 20002KT P6SM OVC100 PROB30 2716/2718 -SHRA BKN030=

USA.gov is the U.S. government's official web portal to all federal, state and local government web resources and services.